Time;durP1;ratioP1;P1;durP2;ratioP2;P2;SDS_P1;SDS_P2;PMS_P1;PMS_P2;Temp;Humidity;BMP_temperature;BMP_pressure;BME280_temperature;BME280_humidity;BME280_pressure;Samples;Min_cycle;Max_cycle;Signal;HPM_P1;HPM_P2
2022/07/05 00:00:59;;;;;;;;;;;14.00;98.40;;;;;;5081646;28;20032;-66
2022/07/05 00:03:40;;;;;;;4.40;1.80;;;14.00;98.90;;;;;;5084926;28;19971;-66
2022/07/05 00:06:20;;;;;;;4.45;1.83;;;14.00;99.00;;;;;;5084047;28;20047;-66
2022/07/05 00:09:01;;;;;;;4.82;2.30;;;14.00;98.80;;;;;;5083064;28;20044;-66
2022/07/05 00:11:41;;;;;;;4.80;2.10;;;13.90;99.00;;;;;;5083135;28;20068;-66
2022/07/05 00:14:22;;;;;;;6.45;2.30;;;13.80;99.30;;;;;;5081972;28;20037;-66
2022/07/05 00:17:03;;;;;;;6.55;2.10;;;13.80;99.40;;;;;;5059180;28;20040;-67
2022/07/05 00:19:44;;;;;;;5.55;2.05;;;13.80;99.30;;;;;;5049081;28;20516;-66
2022/07/05 00:22:24;;;;;;;6.32;2.10;;;13.80;99.10;;;;;;5067650;28;20043;-66
2022/07/05 00:25:09;;;;;;;5.07;1.98;;;13.90;99.00;;;;;;5070253;28;20470;-66
2022/07/05 00:27:53;;;;;;;5.43;1.90;;;13.90;99.20;;;;;;5070426;28;20036;-66
2022/07/05 00:30:37;;;;;;;4.88;1.80;;;13.80;99.50;;;;;;5071121;28;20290;-66
2022/07/05 00:33:21;;;;;;;5.22;2.03;;;13.70;99.90;;;;;;5067006;28;20116;-67
2022/07/05 00:36:05;;;;;;;3.88;2.17;;;13.60;99.90;;;;;;5067570;28;20517;-66
2022/07/05 00:38:49;;;;;;;4.68;2.38;;;13.60;99.90;;;;;;5067086;28;20158;-67
2022/07/05 00:41:34;;;;;;;7.10;2.55;;;13.50;99.90;;;;;;5069694;28;20040;-66
2022/07/05 00:44:32;;;;;;;10.73;1.65;;;13.50;99.90;;;;;;5068325;28;20047;-65
2022/07/05 00:47:16;;;;;;;2.38;1.50;;;13.50;99.90;;;;;;5068757;28;20107;-66
2022/07/05 00:50:01;;;;;;;6.13;1.95;;;13.50;99.90;;;;;;5068549;28;20043;-67
2022/07/05 00:52:46;;;;;;;4.35;2.17;;;13.50;99.90;;;;;;5054546;28;20031;-65
2022/07/05 00:55:27;;;;;;;4.43;1.98;;;13.50;99.90;;;;;;5068034;28;20036;-65
2022/07/05 00:58:07;;;;;;;3.90;2.00;;;13.50;99.90;;;;;;5068562;28;20036;-66
2022/07/05 01:00:48;;;;;;;5.50;1.90;;;13.60;99.90;;;;;;5065899;28;20407;-66
2022/07/05 01:03:28;;;;;;;3.25;1.75;;;13.50;99.90;;;;;;5067961;28;20032;-66
2022/07/05 01:06:11;;;;;;;6.07;2.08;;;13.50;99.90;;;;;;5068452;28;20040;-66
2022/07/05 01:08:41;;;;;;;6.88;2.17;;;13.40;99.90;;;;;;5067524;28;20053;-66
2022/07/05 01:11:11;;;;;;;4.95;1.98;;;13.50;99.90;;;;;;5067026;28;20044;-67
2022/07/05 01:13:37;;;;;;;3.05;1.67;;;13.50;99.90;;;;;;5068186;28;20067;-65
2022/07/05 01:16:04;;;;;;;3.00;1.63;;;13.50;99.90;;;;;;5068166;28;20044;-67
2022/07/05 01:18:31;;;;;;;7.80;2.25;;;13.40;99.90;;;;;;5067784;28;20071;-66
2022/07/05 01:20:58;;;;;;;6.20;1.60;;;13.30;99.90;;;;;;5068244;28;20044;-65
2022/07/05 01:23:27;;;;;;;3.08;1.90;;;13.30;99.90;;;;;;5068071;28;20496;-65
2022/07/05 01:25:54;;;;;;;3.85;2.10;;;13.20;99.90;;;;;;5068264;28;20045;-66
2022/07/05 01:28:20;;;;;;;3.53;1.85;;;13.20;99.90;;;;;;5066764;28;20173;-66
2022/07/05 01:30:47;;;;;;;4.55;1.95;;;13.20;99.90;;;;;;5065807;28;20040;-66
2022/07/05 01:33:13;;;;;;;3.17;1.92;;;13.10;99.90;;;;;;5066774;28;20436;-66
2022/07/05 01:35:39;;;;;;;;;;;13.00;99.90;;;;;;5067633;28;20045;-66
2022/07/05 01:38:05;;;;;;;3.70;2.00;;;12.90;99.90;;;;;;5068403;28;19916;-66
2022/07/05 01:40:31;;;;;;;4.75;2.25;;;12.90;99.90;;;;;;5067518;28;20046;-66
2022/07/05 01:42:58;;;;;;;;;;;12.90;99.90;;;;;;5068630;28;20036;-66
2022/07/05 01:45:42;;;;;;;4.80;1.63;;;12.90;99.90;;;;;;5065900;28;19959;-65
2022/07/05 01:48:08;;;;;;;7.38;2.65;;;12.90;99.90;;;;;;5067245;28;20599;-66
2022/07/05 01:50:39;;;;;;;3.08;1.95;;;12.80;99.90;;;;;;5067697;28;20036;-66
2022/07/05 01:53:06;;;;;;;3.38;1.85;;;12.90;99.90;;;;;;5067601;28;20123;-66
2022/07/05 01:55:31;;;;;;;3.17;1.90;;;12.80;99.90;;;;;;5067630;28;20040;-66
2022/07/05 01:57:58;;;;;;;;;;;12.80;99.90;;;;;;5066958;28;20040;-65
2022/07/05 02:00:24;;;;;;;5.28;2.15;;;12.70;99.90;;;;;;5066137;28;19920;-66
2022/07/05 02:02:49;;;;;;;;;;;12.70;99.90;;;;;;5047370;28;20043;-65
2022/07/05 02:05:15;;;;;;;6.45;2.00;;;12.70;99.90;;;;;;5046290;28;19917;-66
2022/07/05 02:07:46;;;;;;;;;;;12.70;99.90;;;;;;5046324;28;20076;-65
2022/07/05 02:10:12;;;;;;;6.95;2.30;;;12.70;99.90;;;;;;5045602;28;19916;-65
2022/07/05 02:12:37;;;;;;;;;;;12.70;99.90;;;;;;5047498;28;20763;-65
2022/07/05 02:15:03;;;;;;;3.90;2.20;;;12.60;99.90;;;;;;5046120;28;19923;-69
2022/07/05 02:17:28;;;;;;;;;;;12.60;99.90;;;;;;5044746;28;20087;-65
2022/07/05 02:19:54;;;;;;;5.55;2.20;;;12.70;99.90;;;;;;5047003;28;19923;-65
2022/07/05 02:22:19;;;;;;;;;;;12.60;99.90;;;;;;5046584;28;20114;-65
2022/07/05 02:24:45;;;;;;;3.85;2.13;;;12.60;99.90;;;;;;5048351;28;20368;-66
2022/07/05 02:27:10;;;;;;;;;;;12.60;99.90;;;;;;5046642;28;20495;-65
2022/07/05 02:29:36;;;;;;;4.28;2.40;;;12.60;99.90;;;;;;5047200;28;19964;-65
2022/07/05 02:32:02;;;;;;;;;;;12.50;99.90;;;;;;5046374;28;20119;-64
2022/07/05 02:34:27;;;;;;;4.22;1.92;;;12.50;99.90;;;;;;5047077;28;20006;-65
2022/07/05 02:36:52;;;;;;;;;;;12.40;99.90;;;;;;5047043;28;20052;-65
2022/07/05 02:39:18;;;;;;;3.33;2.20;;;12.40;99.90;;;;;;5047544;28;20297;-66
2022/07/05 02:41:44;;;;;;;;;;;12.40;99.90;;;;;;5062429;28;20040;-65
2022/07/05 02:44:09;;;;;;;4.18;2.25;;;12.30;99.90;;;;;;5047378;28;20027;-65
2022/07/05 02:46:35;;;;;;;;;;;12.30;99.90;;;;;;5047709;28;20397;-66
2022/07/05 02:49:00;;;;;;;4.95;2.20;;;12.30;99.90;;;;;;5046861;28;20022;-65
2022/07/05 02:51:26;;;;;;;;;;;12.30;99.90;;;;;;5046492;28;20037;-65
2022/07/05 02:53:51;;;;;;;4.95;2.20;;;12.40;99.90;;;;;;5047330;28;19986;-65
2022/07/05 02:56:17;;;;;;;;;;;12.30;99.90;;;;;;5046146;28;20051;-66
2022/07/05 02:58:42;;;;;;;4.32;2.15;;;12.40;99.90;;;;;;5045177;28;19959;-65
2022/07/05 03:01:08;;;;;;;;;;;12.40;99.90;;;;;;5045853;28;20037;-65
2022/07/05 03:03:33;;;;;;;3.55;2.53;;;12.40;99.90;;;;;;5046049;28;20216;-65
2022/07/05 03:05:59;;;;;;;;;;;12.40;99.90;;;;;;5044151;28;20071;-65
2022/07/05 03:08:25;;;;;;;3.42;2.25;;;12.40;99.90;;;;;;5045844;28;19967;-65
2022/07/05 03:10:50;;;;;;;;;;;12.50;99.90;;;;;;5045702;28;20055;-65
2022/07/05 03:13:16;;;;;;;2.70;1.80;;;12.40;99.90;;;;;;5045862;28;19917;-65
2022/07/05 03:15:42;;;;;;;;;;;12.40;99.90;;;;;;5038000;28;20041;-65
2022/07/05 03:18:08;;;;;;;3.88;1.92;;;12.40;99.90;;;;;;5045915;28;19917;-66
2022/07/05 03:20:34;;;;;;;;;;;12.40;99.90;;;;;;5045615;28;20048;-65
2022/07/05 03:22:59;;;;;;;3.10;1.80;;;12.30;99.90;;;;;;5046910;28;19921;-65
2022/07/05 03:25:25;;;;;;;;;;;12.30;99.90;;;;;;5065054;28;20040;-65
2022/07/05 03:27:51;;;;;;;3.65;1.75;;;12.30;99.90;;;;;;5045245;28;20297;-66
2022/07/05 03:30:16;;;;;;;;;;;12.30;99.90;;;;;;5038787;28;20046;-65
2022/07/05 03:32:42;;;;;;;3.25;2.00;;;12.30;99.90;;;;;;5046876;28;20373;-67
2022/07/05 03:35:07;;;;;;;;;;;12.20;99.90;;;;;;5046156;28;20048;-66
2022/07/05 03:37:33;;;;;;;2.80;2.10;;;12.20;99.90;;;;;;5045357;28;19920;-65
2022/07/05 03:39:58;;;;;;;;;;;12.10;99.90;;;;;;5045927;28;20123;-65
2022/07/05 03:42:24;;;;;;;5.22;2.53;;;12.10;99.90;;;;;;5047393;28;19921;-65
2022/07/05 03:44:49;;;;;;;;;;;12.10;99.90;;;;;;5047204;28;20033;-66
2022/07/05 03:47:15;;;;;;;6.60;2.70;;;12.10;99.90;;;;;;5046582;28;19921;-66
2022/07/05 03:49:40;;;;;;;;;;;12.10;99.90;;;;;;5047758;28;20045;-65
2022/07/05 03:52:06;;;;;;;4.35;2.22;;;12.20;99.90;;;;;;5046352;28;19932;-65
2022/07/05 03:54:31;;;;;;;;;;;12.20;99.90;;;;;;5049200;28;20043;-66
2022/07/05 03:56:57;;;;;;;2.67;2.10;;;12.30;99.90;;;;;;5050700;28;19921;-66
2022/07/05 03:59:22;;;;;;;;;;;12.30;99.90;;;;;;5050756;28;20738;-66
2022/07/05 04:01:48;;;;;;;2.50;2.10;;;12.30;99.90;;;;;;5050074;28;19943;-65
2022/07/05 04:04:13;;;;;;;;;;;12.30;99.90;;;;;;5050267;28;20116;-65
2022/07/05 04:06:39;;;;;;;3.58;2.20;;;12.30;99.90;;;;;;5049013;28;19960;-65
2022/07/05 04:09:04;;;;;;;;;;;12.40;99.90;;;;;;5041044;28;20083;-65
2022/07/05 04:11:30;;;;;;;3.20;2.38;;;12.20;99.90;;;;;;5039816;28;20012;-65
2022/07/05 04:13:56;;;;;;;;;;;12.20;99.90;;;;;;5041885;28;20691;-65
2022/07/05 04:16:22;;;;;;;5.47;2.40;;;12.30;99.90;;;;;;5038447;28;19921;-65
2022/07/05 04:18:47;;;;;;;;;;;12.40;99.90;;;;;;5047845;28;20126;-65
2022/07/05 04:21:13;;;;;;;2.65;2.17;;;12.40;99.90;;;;;;5046804;28;20520;-65
2022/07/05 04:23:38;;;;;;;;;;;12.40;99.90;;;;;;5048347;28;20375;-64
2022/07/05 04:26:04;;;;;;;8.80;2.65;;;12.60;99.90;;;;;;5049007;28;19944;-63
2022/07/05 04:28:30;;;;;;;;;;;12.60;99.90;;;;;;5050483;28;20448;-66
2022/07/05 04:30:56;;;;;;;6.70;2.72;;;12.80;99.90;;;;;;5058618;28;20000;-69
2022/07/05 04:33:22;;;;;;;2.92;2.38;;;12.80;99.90;;;;;;5043461;28;20044;-65
2022/07/05 04:35:48;;;;;;;;;;;13.00;99.90;;;;;;5048680;28;20044;-66
2022/07/05 04:38:13;;;;;;;5.70;2.40;;;13.40;99.90;;;;;;5047598;28;19917;-64
2022/07/05 04:40:40;;;;;;;;;;;13.50;99.90;;;;;;5049534;28;20037;-66
2022/07/05 04:43:06;;;;;;;4.07;2.22;;;13.60;99.90;;;;;;5048834;28;20003;-67
2022/07/05 04:45:32;;;;;;;;;;;13.40;99.90;;;;;;5048255;28;20206;-68
2022/07/05 04:47:58;;;;;;;7.55;1.92;;;13.40;99.90;;;;;;5047664;28;19939;-67
2022/07/05 04:50:24;;;;;;;5.07;2.47;;;13.50;99.90;;;;;;5047832;28;20049;-63
2022/07/05 04:52:49;;;;;;;;;;;13.50;99.90;;;;;;5047240;28;20033;-66
2022/07/05 04:55:15;;;;;;;3.95;1.88;;;13.40;99.90;;;;;;5045223;28;19916;-66
2022/07/05 04:57:41;;;;;;;;;;;13.40;99.90;;;;;;5047035;28;20120;-66
2022/07/05 05:00:11;;;;;;;4.97;2.30;;;13.60;99.90;;;;;;5056192;28;20391;-68
2022/07/05 05:02:37;;;;;;;5.80;2.45;;;13.80;99.90;;;;;;5067692;28;20102;-67
2022/07/05 05:05:03;;;;;;;;;;;13.80;99.90;;;;;;5069822;28;20131;-68
2022/07/05 05:07:29;;;;;;;5.05;2.00;;;13.80;99.90;;;;;;5070402;28;20453;-67
2022/07/05 05:09:54;;;;;;;;;;;13.80;99.90;;;;;;5068164;28;20044;-66
2022/07/05 05:12:20;;;;;;;5.10;2.15;;;13.90;99.90;;;;;;5067890;28;19962;-66
2022/07/05 05:14:46;;;;;;;;;;;13.90;99.90;;;;;;5067465;28;20725;-64
2022/07/05 05:17:11;;;;;;;6.32;2.40;;;13.90;99.90;;;;;;5067174;28;20323;-65
2022/07/05 05:19:37;;;;;;;;;;;13.90;99.90;;;;;;5069028;28;20432;-65
2022/07/05 05:22:03;;;;;;;5.53;2.60;;;14.10;99.90;;;;;;5067259;28;19920;-65
2022/07/05 05:24:28;;;;;;;;;;;14.10;99.90;;;;;;5067029;28;20672;-66
2022/07/05 05:26:54;;;;;;;5.03;2.40;;;14.20;99.90;;;;;;5067957;28;20419;-67
2022/07/05 05:29:22;;;;;;;;;;;14.10;99.90;;;;;;5067154;28;20428;-68
2022/07/05 05:31:48;;;;;;;3.20;2.00;;;14.10;99.90;;;;;;5067158;28;19916;-67
2022/07/05 05:34:13;;;;;;;;;;;14.00;99.90;;;;;;5066222;28;20046;-68
2022/07/05 05:36:39;;;;;;;4.55;2.38;;;14.00;99.90;;;;;;5063748;28;19917;-66
2022/07/05 05:39:05;;;;;;;;;;;14.10;99.90;;;;;;5065662;28;20043;-68
2022/07/05 05:41:30;;;;;;;4.65;1.80;;;14.20;99.90;;;;;;5065009;28;20372;-67
2022/07/05 05:43:56;;;;;;;;;;;14.30;99.90;;;;;;5065502;28;20086;-67
2022/07/05 05:46:21;;;;;;;4.10;2.25;;;14.50;99.90;;;;;;5064762;28;19931;-66
2022/07/05 05:48:47;;;;;;;;;;;14.50;99.90;;;;;;5067139;28;20068;-65
2022/07/05 05:51:12;;;;;;;9.43;2.13;;;14.50;99.90;;;;;;5066590;28;19921;-66
2022/07/05 05:53:38;;;;;;;;;;;14.60;99.90;;;;;;5067144;28;20500;-67
2022/07/05 05:56:03;;;;;;;3.88;1.77;;;14.80;99.90;;;;;;5062622;28;20011;-68
2022/07/05 05:58:29;;;;;;;;;;;15.00;99.90;;;;;;5066618;28;20036;-67
2022/07/05 06:00:55;;;;;;;4.13;2.28;;;15.00;99.90;;;;;;5061009;28;19952;-68
2022/07/05 06:03:25;;;;;;;;;;;15.20;99.90;;;;;;5056419;28;20048;-68
2022/07/05 06:05:50;;;;;;;3.88;2.25;;;15.10;99.90;;;;;;5054150;28;20448;-66
2022/07/05 06:08:16;;;;;;;;;;;15.10;99.90;;;;;;5051515;28;20123;-68
2022/07/05 06:10:42;;;;;;;7.70;2.20;;;15.20;99.90;;;;;;5052772;28;20431;-68
2022/07/05 06:13:09;;;;;;;;;;;15.30;99.90;;;;;;5055700;28;20032;-68
2022/07/05 06:15:36;;;;;;;8.85;2.67;;;15.40;99.90;;;;;;5047803;28;19939;-66
2022/07/05 06:18:02;;;;;;;5.00;2.38;;;15.60;99.90;;;;;;5046058;28;20051;-68
2022/07/05 06:20:33;;;;;;;4.15;2.15;;;15.70;99.90;;;;;;5045397;28;20056;-67
2022/07/05 06:23:00;;;;;;;6.30;2.65;;;16.10;99.90;;;;;;5046065;28;20049;-68
2022/07/05 06:25:26;;;;;;;5.45;2.63;;;16.50;99.70;;;;;;5046571;28;20068;-67
2022/07/05 06:27:51;;;;;;;;;;;16.70;98.40;;;;;;5047430;28;20073;-67
2022/07/05 06:30:19;;;;;;;5.00;2.10;;;16.80;98.30;;;;;;5045162;28;20411;-67
2022/07/05 06:32:46;;;;;;;4.03;1.95;;;16.90;98.40;;;;;;5065881;28;20040;-67
2022/07/05 06:35:12;;;;;;;6.00;1.98;;;16.90;98.20;;;;;;5065116;28;20047;-68
2022/07/05 06:37:45;;;;;;;;;;;16.70;98.00;;;;;;5067152;28;20036;-67
2022/07/05 06:40:13;;;;;;;3.75;1.75;;;16.60;98.10;;;;;;5066266;28;20004;-66
2022/07/05 06:42:39;;;;;;;5.10;2.20;;;16.50;97.90;;;;;;5066123;28;20508;-66
2022/07/05 06:45:09;;;;;;;4.95;1.77;;;16.50;98.50;;;;;;5067087;28;20143;-65
2022/07/05 06:47:35;;;;;;;2.38;1.77;;;16.70;99.40;;;;;;5066001;28;20055;-67
2022/07/05 06:50:02;;;;;;;;;;;16.70;99.10;;;;;;5062274;28;20400;-67
2022/07/05 06:52:28;;;;;;;6.20;2.00;;;16.60;97.70;;;;;;5066518;28;19969;-67
2022/07/05 06:54:54;;;;;;;;;;;16.50;98.10;;;;;;5067132;28;20037;-67
2022/07/05 06:57:23;;;;;;;5.18;2.33;;;17.10;98.80;;;;;;5065845;28;20391;-67
2022/07/05 06:59:49;;;;;;;7.32;1.90;;;17.40;97.50;;;;;;5065728;28;20045;-68
2022/07/05 07:02:15;;;;;;;6.35;2.55;;;17.40;97.10;;;;;;5064428;28;20127;-67
2022/07/05 07:04:40;;;;;;;;;;;17.10;96.40;;;;;;5066414;28;20817;-68
2022/07/05 07:09:17;;;;;;;6.38;2.20;;;16.90;97.20;;;;;;5065721;28;19928;-68
2022/07/05 07:10:02;;;;;;;4.15;1.92;;;16.80;98.70;;;;;;5065452;28;20052;-67
2022/07/05 07:12:29;;;;;;;5.20;1.90;;;16.90;97.90;;;;;;5065681;28;20052;-67
2022/07/05 07:14:56;;;;;;;5.30;1.83;;;17.00;97.40;;;;;;5065980;28;20450;-67
2022/07/05 07:17:22;;;;;;;6.22;2.65;;;17.10;97.40;;;;;;5065485;28;20109;-67
2022/07/05 07:19:48;;;;;;;7.05;2.53;;;17.30;97.40;;;;;;5065481;28;20048;-67
2022/07/05 07:22:13;;;;;;;;;;;17.10;96.80;;;;;;5066131;28;20048;-68
2022/07/05 07:24:39;;;;;;;9.55;2.75;;;17.30;97.10;;;;;;5066074;28;19924;-68
2022/07/05 07:27:06;;;;;;;;;;;17.30;96.50;;;;;;5065852;28;20129;-68
2022/07/05 07:29:33;;;;;;;8.27;2.25;;;17.70;95.90;;;;;;5069053;28;19916;-69
2022/07/05 07:31:59;;;;;;;4.22;1.95;;;18.20;95.80;;;;;;5068358;28;20097;-65
2022/07/05 07:34:25;;;;;;;11.07;2.63;;;18.30;95.00;;;;;;5068502;28;20041;-67
2022/07/05 07:36:52;;;;;;;5.65;2.17;;;18.00;94.70;;;;;;5068222;28;20117;-65
2022/07/05 07:39:18;;;;;;;4.90;1.83;;;17.80;95.80;;;;;;5068728;28;20094;-68
2022/07/05 07:41:43;;;;;;;;;;;17.70;96.30;;;;;;5070152;28;20427;-67
2022/07/05 07:44:09;;;;;;;3.22;1.50;;;17.70;96.10;;;;;;5069103;28;19916;-66
2022/07/05 07:46:35;;;;;;;;;;;17.70;96.70;;;;;;5068558;28;20056;-68
2022/07/05 07:49:02;;;;;;;6.93;2.07;;;17.70;95.90;;;;;;5069039;28;19916;-66
2022/07/05 07:51:28;;;;;;;3.58;1.88;;;17.60;96.00;;;;;;5069420;28;20277;-65
2022/07/05 07:53:54;;;;;;;5.53;1.80;;;17.70;96.20;;;;;;5068849;28;20075;-67
2022/07/05 07:56:20;;;;;;;;;;;17.80;96.00;;;;;;5068649;28;20540;-68
2022/07/05 07:58:47;;;;;;;4.50;2.22;;;17.80;95.30;;;;;;5067053;28;19959;-68
2022/07/05 08:01:13;;;;;;;5.35;1.88;;;18.10;95.10;;;;;;5067349;28;20123;-68
2022/07/05 08:03:42;;;;;;;4.75;2.05;;;18.30;94.50;;;;;;5068923;28;20040;-67
2022/07/05 08:06:10;;;;;;;2.90;1.70;;;18.40;93.90;;;;;;5069264;28;20660;-68
2022/07/05 08:08:39;;;;;;;3.33;1.70;;;18.40;95.00;;;;;;5069801;28;20043;-67
2022/07/05 08:11:06;;;;;;;6.57;3.05;;;18.80;95.00;;;;;;5070533;28;20072;-67
2022/07/05 08:13:31;;;;;;;8.60;1.88;;;19.40;92.50;;;;;;5069759;28;20068;-67
2022/07/05 08:15:58;;;;;;;;;;;20.00;92.10;;;;;;5069120;28;20466;-68
2022/07/05 08:23:52;;;;;;;3.33;1.35;;;19.60;92.00;;;;;;5069033;28;20123;-68
2022/07/05 08:26:18;;;;;;;;;;;19.30;93.40;;;;;;5068848;28;20155;-67
2022/07/05 08:28:43;;;;;;;5.43;1.75;;;19.00;93.10;;;;;;5068575;28;19917;-68
2022/07/05 08:31:09;;;;;;;6.60;2.40;;;18.80;93.50;;;;;;5067726;28;20036;-67
2022/07/05 08:33:35;;;;;;;5.78;1.80;;;18.50;94.10;;;;;;5068009;28;20766;-66
2022/07/05 08:36:00;;;;;;;;;;;18.20;93.90;;;;;;5068912;28;20085;-67
2022/07/05 08:38:27;;;;;;;8.18;4.10;;;18.40;94.70;;;;;;5067400;28;19978;-68
2022/07/05 08:40:55;;;;;;;7.22;2.80;;;18.80;92.60;;;;;;5069038;28;20786;-66
2022/07/05 08:43:22;;;;;;;7.68;2.28;;;19.60;93.10;;;;;;5067579;28;20045;-67
2022/07/05 08:45:49;;;;;;;5.78;2.20;;;20.30;92.40;;;;;;5067169;28;20044;-66
2022/07/05 08:48:16;;;;;;;5.97;1.80;;;20.20;91.80;;;;;;5065534;28;21447;-67
2022/07/05 08:50:43;;;;;;;7.57;2.80;;;20.00;91.90;;;;;;5058358;28;20028;-66
2022/07/05 08:53:09;;;;;;;11.68;2.45;;;19.50;92.30;;;;;;5067352;28;20044;-68
2022/07/05 08:55:35;;;;;;;6.10;2.65;;;20.00;93.30;;;;;;5068544;28;20037;-67
2022/07/05 08:58:01;;;;;;;;;;;21.50;91.70;;;;;;5068167;28;20040;-68
2022/07/05 09:00:27;;;;;;;5.03;2.08;;;22.60;86.50;;;;;;5067350;28;20639;-68
2022/07/05 09:02:54;;;;;;;3.20;1.80;;;23.00;81.80;;;;;;5067412;28;20454;-68
2022/07/05 09:05:21;;;;;;;6.93;1.95;;;22.30;85.30;;;;;;5067832;28;20055;-67
2022/07/05 09:08:00;;;;;;;4.95;1.60;;;21.50;89.00;;;;;;5067594;28;20136;-68
2022/07/05 09:10:27;;;;;;;8.73;2.50;;;20.60;90.60;;;;;;5063228;28;20041;-68
2022/07/05 09:12:54;;;;;;;10.65;3.20;;;20.10;91.30;;;;;;5048312;28;20572;-67
2022/07/05 09:15:20;;;;;;;2.72;1.92;;;19.90;91.50;;;;;;5063276;28;20354;-68
2022/07/05 09:17:46;;;;;;;;;;;19.90;91.90;;;;;;5066804;28;20754;-68
2022/07/05 09:20:14;;;;;;;8.82;2.65;;;19.80;92.20;;;;;;5067808;28;19916;-68
2022/07/05 09:22:42;;;;;;;5.85;1.95;;;19.80;91.60;;;;;;5068624;28;20048;-66
2022/07/05 09:25:23;;;;;;;3.70;1.70;;;20.00;92.20;;;;;;5066594;28;20094;-67
2022/07/05 09:27:53;;;;;;;5.25;2.17;;;20.20;91.70;;;;;;5065591;28;20048;-66
2022/07/05 09:30:25;;;;;;;4.95;2.45;;;20.30;91.40;;;;;;5067041;28;20403;-68
2022/07/05 09:33:11;;;;;;;6.75;2.38;;;20.40;89.10;;;;;;5066372;28;20400;-67
2022/07/05 09:35:39;;;;;;;4.40;1.60;;;20.20;89.10;;;;;;5067346;28;20110;-68
2022/07/05 09:38:06;;;;;;;5.35;2.47;;;20.30;92.60;;;;;;5067633;28;20634;-67
2022/07/05 09:40:47;;;;;;;6.40;2.20;;;20.10;91.50;;;;;;5067853;28;20064;-67
2022/07/05 09:43:25;;;;;;;3.90;2.10;;;19.90;90.40;;;;;;5065793;28;20036;-67
2022/07/05 09:45:53;;;;;;;5.43;1.92;;;19.80;90.70;;;;;;5056315;28;20115;-68
2022/07/05 09:48:19;;;;;;;4.28;2.00;;;20.00;90.50;;;;;;5062018;28;20135;-67
2022/07/05 09:50:45;;;;;;;;;;;20.00;90.30;;;;;;5058695;28;20484;-67
2022/07/05 09:53:14;;;;;;;5.05;2.00;;;20.00;90.50;;;;;;5061169;28;19921;-65
2022/07/05 09:55:40;;;;;;;5.82;2.35;;;20.10;88.90;;;;;;5064084;28;20109;-62
2022/07/05 09:58:06;;;;;;;4.30;1.90;;;20.00;90.80;;;;;;5067006;28;20085;-65
2022/07/05 10:00:32;;;;;;;;;;;20.10;90.80;;;;;;5066391;28;20123;-65
2022/07/05 10:03:00;;;;;;;6.72;2.10;;;20.40;88.20;;;;;;5060123;28;20024;-69
2022/07/05 10:05:30;;;;;;;3.92;1.50;;;20.60;90.10;;;;;;5066188;28;20071;-66
2022/07/05 10:08:01;;;;;;;4.93;1.75;;;20.60;89.40;;;;;;5060515;28;20125;-67
2022/07/05 10:10:31;;;;;;;4.82;1.83;;;20.20;86.80;;;;;;5066323;28;20092;-66
2022/07/05 10:13:01;;;;;;;10.07;1.63;;;20.10;88.60;;;;;;5059019;28;20043;-67
2022/07/05 10:15:34;;;;;;;4.50;1.58;;;20.30;86.20;;;;;;5066388;28;20783;-66
2022/07/05 10:18:04;;;;;;;6.88;1.60;;;20.20;85.40;;;;;;5065998;28;20512;-67
2022/07/05 10:20:34;;;;;;;7.45;0.98;;;19.80;89.90;;;;;;5066432;28;20041;-67
2022/07/05 10:23:04;;;;;;;7.68;1.42;;;19.90;90.20;;;;;;5065310;28;20051;-66
2022/07/05 10:25:31;;;;;;;3.92;1.38;;;19.70;89.60;;;;;;5066032;28;20033;-66
2022/07/05 10:27:58;;;;;;;5.40;1.35;;;19.90;90.60;;;;;;5061411;28;20420;-65
2022/07/05 10:30:25;;;;;;;7.45;1.90;;;20.00;90.20;;;;;;5061661;28;20032;-67
2022/07/05 10:32:51;;;;;;;4.40;1.98;;;20.20;86.70;;;;;;5058437;28;20089;-66
2022/07/05 10:35:18;;;;;;;4.85;1.55;;;20.40;90.70;;;;;;5049073;28;20037;-67
2022/07/05 10:37:45;;;;;;;2.95;1.65;;;20.40;88.70;;;;;;5045830;28;20501;-66
2022/07/05 10:40:11;;;;;;;4.25;1.50;;;20.30;87.60;;;;;;5047463;28;20048;-67
2022/07/05 10:42:41;;;;;;;3.95;1.42;;;20.20;86.20;;;;;;5040075;28;20043;-66
2022/07/05 10:45:30;;;;;;;6.40;1.20;;;19.90;87.20;;;;;;5045713;28;20039;-67
2022/07/05 10:48:20;;;;;;;5.20;1.60;;;19.80;90.00;;;;;;5025347;28;20525;-66
2022/07/05 10:50:53;;;;;;;2.20;1.20;;;20.00;88.20;;;;;;5028211;28;20041;-67
2022/07/05 10:53:48;;;;;;;3.75;1.63;;;20.40;87.50;;;;;;5042646;28;20102;-66
2022/07/05 10:56:14;;;;;;;3.22;1.38;;;20.70;85.80;;;;;;5045265;28;20068;-67
2022/07/05 10:58:46;;;;;;;1.63;1.20;;;21.10;86.50;;;;;;5045529;28;20036;-68
2022/07/05 11:01:11;;;;;;;1.67;1.30;;;21.10;84.20;;;;;;5051163;28;20044;-67
2022/07/05 11:03:45;;;;;;;7.88;2.00;;;21.10;87.40;;;;;;5065080;28;20132;-67
2022/07/05 11:06:21;;;;;;;2.78;1.50;;;21.10;84.40;;;;;;5065728;28;20045;-66
2022/07/05 11:08:59;;;;;;;2.58;1.40;;;20.80;84.30;;;;;;5064961;28;20044;-67
2022/07/05 11:11:39;;;;;;;5.25;1.50;;;20.50;84.30;;;;;;5065390;28;20036;-66
2022/07/05 11:14:25;;;;;;;7.00;1.45;;;20.30;85.50;;;;;;5065579;28;20047;-66
2022/07/05 11:17:13;;;;;;;2.45;1.15;;;20.60;84.70;;;;;;5064806;28;20052;-67
2022/07/05 11:20:04;;;;;;;4.10;1.27;;;20.80;84.70;;;;;;5065210;28;20528;-68
2022/07/05 11:22:30;;;;;;;2.05;1.45;;;20.90;83.60;;;;;;5065525;28;20424;-67
2022/07/05 11:24:57;;;;;;;3.88;1.48;;;21.00;82.80;;;;;;5078022;28;20119;-67
2022/07/05 11:27:23;;;;;;;3.47;1.60;;;20.70;82.90;;;;;;5071590;28;20052;-62
2022/07/05 11:29:50;;;;;;;;;;;20.40;81.00;;;;;;5082009;28;20035;-67
2022/07/05 11:32:21;;;;;;;3.60;1.58;;;20.10;81.90;;;;;;5078392;28;20337;-68
2022/07/05 11:34:49;;;;;;;5.00;2.15;;;20.30;82.80;;;;;;5070878;28;20029;-68
2022/07/05 11:37:24;;;;;;;5.97;1.98;;;20.40;83.70;;;;;;5068106;28;20044;-68
2022/07/05 11:40:10;;;;;;;4.50;1.70;;;20.60;81.80;;;;;;5073651;28;20052;-66
2022/07/05 11:42:56;;;;;;;2.45;1.38;;;20.70;80.70;;;;;;5069678;28;20047;-67
2022/07/05 11:45:22;;;;;;;3.80;2.30;;;20.70;79.40;;;;;;5074066;28;20095;-67
2022/07/05 11:47:47;;;;;;;1.58;1.02;;;20.60;81.40;;;;;;5074210;28;20071;-67
2022/07/05 11:50:13;;;;;;;2.55;1.40;;;20.60;81.30;;;;;;5077465;28;20097;-66
2022/07/05 11:52:40;;;;;;;2.75;1.33;;;20.50;80.00;;;;;;5072327;28;20086;-66
2022/07/05 11:55:08;;;;;;;5.55;1.58;;;20.40;80.00;;;;;;5065215;28;20040;-66
2022/07/05 11:57:34;;;;;;;2.67;1.25;;;20.40;81.10;;;;;;5065913;28;20050;-67
2022/07/05 11:59:59;;;;;;;;;;;20.60;81.80;;;;;;5074082;28;20558;-66
2022/07/05 12:02:25;;;;;;;1.05;0.82;;;20.80;82.50;;;;;;5064719;28;19916;-67
2022/07/05 12:04:53;;;;;;;2.53;1.50;;;20.80;80.20;;;;;;5069485;28;20036;-67
2022/07/05 12:07:29;;;;;;;3.22;1.70;;;21.00;78.50;;;;;;5068991;28;20048;-67
2022/07/05 12:12:43;;;;;;;3.38;1.50;;;20.60;78.10;;;;;;5068854;28;20055;-66
2022/07/05 12:15:14;;;;;;;1.52;0.98;;;20.50;77.90;;;;;;5080384;28;20028;-66
2022/07/05 12:17:42;;;;;;;2.28;1.15;;;20.70;78.00;;;;;;5080301;28;20032;-67
2022/07/05 12:20:11;;;;;;;2.92;1.58;;;21.20;77.30;;;;;;5073412;28;20051;-68
2022/07/05 12:22:38;;;;;;;3.60;1.35;;;21.50;78.60;;;;;;5068169;28;20043;-67
2022/07/05 12:25:06;;;;;;;4.10;1.35;;;21.20;77.60;;;;;;5068232;28;20071;-67
2022/07/05 12:27:34;;;;;;;3.80;1.30;;;21.00;79.40;;;;;;5068960;28;20123;-67
2022/07/05 12:30:02;;;;;;;3.08;1.40;;;21.00;78.50;;;;;;5068055;28;20028;-67
2022/07/05 12:32:29;;;;;;;4.60;1.27;;;21.30;78.20;;;;;;5076191;28;20047;-68
2022/07/05 12:34:56;;;;;;;3.75;1.58;;;21.50;77.30;;;;;;5077796;28;20749;-67
2022/07/05 12:37:27;;;;;;;3.78;1.38;;;21.50;77.80;;;;;;5068510;28;20540;-66
2022/07/05 12:40:08;;;;;;;6.45;1.50;;;21.50;77.70;;;;;;5067080;28;20112;-67
2022/07/05 12:42:38;;;;;;;3.67;1.50;;;21.30;77.70;;;;;;5068152;28;20046;-67
2022/07/05 12:45:14;;;;;;;3.00;1.35;;;21.20;78.00;;;;;;5068960;28;20037;-67
2022/07/05 12:47:53;;;;;;;5.47;1.60;;;21.50;77.90;;;;;;5067747;28;20049;-67
2022/07/05 12:50:20;;;;;;;5.30;1.63;;;21.60;77.10;;;;;;5068546;28;20496;-67
2022/07/05 12:58:53;;;;;;;1.60;1.25;;;20.90;76.30;;;;;;5059499;28;20040;-67
2022/07/05 13:01:24;;;;;;;3.03;1.35;;;21.30;78.20;;;;;;5068208;28;20033;-67
2022/07/05 13:04:04;;;;;;;2.35;1.00;;;21.30;77.30;;;;;;5067172;28;20037;-67
2022/07/05 13:06:50;;;;;;;3.47;1.50;;;21.20;77.40;;;;;;5067812;28;20056;-67
2022/07/05 13:09:33;;;;;;;2.88;1.50;;;21.30;77.30;;;;;;5068735;28;20036;-67
2022/07/05 13:12:25;;;;;;;3.92;1.40;;;21.60;75.80;;;;;;5067615;28;20127;-67
2022/07/05 13:14:53;;;;;;;4.18;1.40;;;21.90;76.40;;;;;;5065439;28;20057;-66
2022/07/05 13:17:20;;;;;;;6.55;1.40;;;21.90;75.20;;;;;;5067670;28;20123;-67
2022/07/05 13:19:47;;;;;;;4.82;1.70;;;22.20;74.40;;;;;;5067030;28;20041;-68
2022/07/05 13:22:13;;;;;;;7.57;1.77;;;22.40;74.60;;;;;;5067578;28;20129;-66
2022/07/05 13:24:40;;;;;;;4.25;1.63;;;22.40;75.60;;;;;;5066880;28;20076;-66
2022/07/05 13:27:07;;;;;;;4.03;1.50;;;22.50;75.40;;;;;;5067255;28;20048;-67
2022/07/05 13:29:33;;;;;;;4.13;1.35;;;22.50;75.80;;;;;;5068018;28;20040;-67